sensor_id;sensor_type;location;lat;lon;timestamp;temperature;humidity
8593;DHT22;4334;49.982;8.398;2022-12-10T00:00:41;3.00;99.90
8593;DHT22;4334;49.982;8.398;2022-12-10T00:03:08;2.10;99.90
8593;DHT22;4334;49.982;8.398;2022-12-10T00:05:35;1.70;99.90
8593;DHT22;4334;49.982;8.398;2022-12-10T00:08:03;1.70;99.90
8593;DHT22;4334;49.982;8.398;2022-12-10T00:10:30;1.70;99.90
8593;DHT22;4334;49.982;8.398;2022-12-10T00:12:57;1.60;99.90
8593;DHT22;4334;49.982;8.398;2022-12-10T00:15:23;1.70;99.90
8593;DHT22;4334;49.982;8.398;2022-12-10T00:17:50;1.70;99.90
8593;DHT22;4334;49.982;8.398;2022-12-10T00:20:17;1.70;99.90
8593;DHT22;4334;49.982;8.398;2022-12-10T00:22:44;1.70;99.90
8593;DHT22;4334;49.982;8.398;2022-12-10T00:25:12;1.70;99.90
8593;DHT22;4334;49.982;8.398;2022-12-10T00:27:38;1.70;99.90
8593;DHT22;4334;49.982;8.398;2022-12-10T00:30:06;1.80;99.90
8593;DHT22;4334;49.982;8.398;2022-12-10T00:32:33;1.70;99.90
8593;DHT22;4334;49.982;8.398;2022-12-10T00:35:00;1.70;99.90
8593;DHT22;4334;49.982;8.398;2022-12-10T00:37:26;1.80;99.90
8593;DHT22;4334;49.982;8.398;2022-12-10T00:39:53;1.70;99.90
8593;DHT22;4334;49.982;8.398;2022-12-10T00:42:21;1.70;99.90
8593;DHT22;4334;49.982;8.398;2022-12-10T00:44:48;1.70;99.90
8593;DHT22;4334;49.982;8.398;2022-12-10T00:47:15;1.70;99.90
8593;DHT22;4334;49.982;8.398;2022-12-10T00:49:42;1.70;99.90
8593;DHT22;4334;49.982;8.398;2022-12-10T00:52:09;1.70;99.90
8593;DHT22;4334;49.982;8.398;2022-12-10T00:54:35;1.60;99.90
8593;DHT22;4334;49.982;8.398;2022-12-10T00:57:02;1.60;99.90
8593;DHT22;4334;49.982;8.398;2022-12-10T00:59:30;1.60;99.90
8593;DHT22;4334;49.982;8.398;2022-12-10T01:01:57;1.60;99.90
8593;DHT22;4334;49.982;8.398;2022-12-10T01:04:24;1.60;99.90
8593;DHT22;4334;49.982;8.398;2022-12-10T01:06:53;1.50;99.90
8593;DHT22;4334;49.982;8.398;2022-12-10T01:09:21;1.50;99.90
8593;DHT22;4334;49.982;8.398;2022-12-10T01:11:49;1.60;99.90
8593;DHT22;4334;49.982;8.398;2022-12-10T01:14:18;3.30;99.90
8593;DHT22;4334;49.982;8.398;2022-12-10T01:16:47;1.50;99.90
8593;DHT22;4334;49.982;8.398;2022-12-10T01:19:14;1.40;99.90
8593;DHT22;4334;49.982;8.398;2022-12-10T01:21:41;1.50;99.90
8593;DHT22;4334;49.982;8.398;2022-12-10T01:24:08;1.40;99.90
8593;DHT22;4334;49.982;8.398;2022-12-10T01:26:35;1.40;99.90
8593;DHT22;4334;49.982;8.398;2022-12-10T01:29:03;1.40;99.90
8593;DHT22;4334;49.982;8.398;2022-12-10T01:31:32;1.40;99.90
8593;DHT22;4334;49.982;8.398;2022-12-10T01:34:01;1.50;99.90
8593;DHT22;4334;49.982;8.398;2022-12-10T01:36:31;1.50;99.90
8593;DHT22;4334;49.982;8.398;2022-12-10T01:38:58;1.40;99.90
8593;DHT22;4334;49.982;8.398;2022-12-10T01:41:27;1.40;99.90
8593;DHT22;4334;49.982;8.398;2022-12-10T01:43:56;1.40;99.90
8593;DHT22;4334;49.982;8.398;2022-12-10T01:46:25;2.50;99.90
8593;DHT22;4334;49.982;8.398;2022-12-10T01:48:52;1.40;99.90
8593;DHT22;4334;49.982;8.398;2022-12-10T01:51:22;1.40;99.90
8593;DHT22;4334;49.982;8.398;2022-12-10T01:53:49;1.40;99.90
8593;DHT22;4334;49.982;8.398;2022-12-10T01:56:18;1.40;99.90
8593;DHT22;4334;49.982;8.398;2022-12-10T01:58:45;1.40;99.90
8593;DHT22;4334;49.982;8.398;2022-12-10T02:01:15;1.30;99.90
8593;DHT22;4334;49.982;8.398;2022-12-10T02:03:52;1.20;99.90
8593;DHT22;4334;49.982;8.398;2022-12-10T02:06:34;1.20;99.90
8593;DHT22;4334;49.982;8.398;2022-12-10T02:09:13;1.20;99.90
8593;DHT22;4334;49.982;8.398;2022-12-10T02:12:05;1.30;99.90
8593;DHT22;4334;49.982;8.398;2022-12-10T02:14:43;1.30;99.90
8593;DHT22;4334;49.982;8.398;2022-12-10T02:17:14;1.30;99.90
8593;DHT22;4334;49.982;8.398;2022-12-10T02:19:56;1.30;99.90
8593;DHT22;4334;49.982;8.398;2022-12-10T02:22:27;1.30;99.90
8593;DHT22;4334;49.982;8.398;2022-12-10T02:24:55;1.30;99.90
8593;DHT22;4334;49.982;8.398;2022-12-10T02:27:27;1.20;99.90
8593;DHT22;4334;49.982;8.398;2022-12-10T02:29:58;1.20;99.90
8593;DHT22;4334;49.982;8.398;2022-12-10T02:32:31;1.10;99.90
8593;DHT22;4334;49.982;8.398;2022-12-10T02:35:03;1.10;99.90
8593;DHT22;4334;49.982;8.398;2022-12-10T02:37:33;1.10;99.90
8593;DHT22;4334;49.982;8.398;2022-12-10T02:40:04;1.10;99.90
8593;DHT22;4334;49.982;8.398;2022-12-10T02:42:35;1.10;99.90
8593;DHT22;4334;49.982;8.398;2022-12-10T02:45:05;1.10;99.90
8593;DHT22;4334;49.982;8.398;2022-12-10T02:47:33;1.00;99.90
8593;DHT22;4334;49.982;8.398;2022-12-10T02:50:01;1.00;99.90
8593;DHT22;4334;49.982;8.398;2022-12-10T02:52:29;1.00;99.90
8593;DHT22;4334;49.982;8.398;2022-12-10T02:54:56;0.90;99.90
8593;DHT22;4334;49.982;8.398;2022-12-10T02:57:30;4.20;99.90
8593;DHT22;4334;49.982;8.398;2022-12-10T03:00:08;0.90;99.90
8593;DHT22;4334;49.982;8.398;2022-12-10T03:02:45;0.90;99.90
8593;DHT22;4334;49.982;8.398;2022-12-10T03:05:18;0.90;99.90
8593;DHT22;4334;49.982;8.398;2022-12-10T03:07:50;0.90;99.90
8593;DHT22;4334;49.982;8.398;2022-12-10T03:10:26;0.80;99.90
8593;DHT22;4334;49.982;8.398;2022-12-10T03:12:57;0.80;99.90
8593;DHT22;4334;49.982;8.398;2022-12-10T03:15:28;-0.90;99.90
8593;DHT22;4334;49.982;8.398;2022-12-10T03:17:59;0.80;99.90
8593;DHT22;4334;49.982;8.398;2022-12-10T03:20:27;0.80;99.90
8593;DHT22;4334;49.982;8.398;2022-12-10T03:22:55;0.80;99.90
8593;DHT22;4334;49.982;8.398;2022-12-10T03:25:24;0.70;99.90
8593;DHT22;4334;49.982;8.398;2022-12-10T03:27:54;0.70;99.90
8593;DHT22;4334;49.982;8.398;2022-12-10T03:30:22;0.70;99.90
8593;DHT22;4334;49.982;8.398;2022-12-10T03:32:51;0.70;99.90
8593;DHT22;4334;49.982;8.398;2022-12-10T03:35:20;0.70;99.90
8593;DHT22;4334;49.982;8.398;2022-12-10T03:37:49;0.70;99.90
8593;DHT22;4334;49.982;8.398;2022-12-10T03:40:17;0.70;99.90
8593;DHT22;4334;49.982;8.398;2022-12-10T03:42:44;0.60;99.90
8593;DHT22;4334;49.982;8.398;2022-12-10T03:45:11;0.60;99.90
8593;DHT22;4334;49.982;8.398;2022-12-10T03:47:39;0.60;99.90
8593;DHT22;4334;49.982;8.398;2022-12-10T03:50:08;0.60;99.90
8593;DHT22;4334;49.982;8.398;2022-12-10T03:52:35;0.50;99.90
8593;DHT22;4334;49.982;8.398;2022-12-10T03:55:02;0.50;99.90
8593;DHT22;4334;49.982;8.398;2022-12-10T03:57:29;0.50;99.90
8593;DHT22;4334;49.982;8.398;2022-12-10T03:59:56;0.50;99.90
8593;DHT22;4334;49.982;8.398;2022-12-10T04:02:23;0.40;99.90
8593;DHT22;4334;49.982;8.398;2022-12-10T04:04:50;0.40;99.90
8593;DHT22;4334;49.982;8.398;2022-12-10T04:07:18;0.40;99.90
8593;DHT22;4334;49.982;8.398;2022-12-10T04:09:45;0.40;99.90
8593;DHT22;4334;49.982;8.398;2022-12-10T04:12:12;0.30;99.90
8593;DHT22;4334;49.982;8.398;2022-12-10T04:14:39;0.30;99.90
8593;DHT22;4334;49.982;8.398;2022-12-10T04:17:23;0.30;99.90
8593;DHT22;4334;49.982;8.398;2022-12-10T04:19:50;0.20;99.90
8593;DHT22;4334;49.982;8.398;2022-12-10T04:22:18;0.20;99.90
8593;DHT22;4334;49.982;8.398;2022-12-10T04:25:03;0.20;99.90
8593;DHT22;4334;49.982;8.398;2022-12-10T04:27:46;0.20;99.90
8593;DHT22;4334;49.982;8.398;2022-12-10T04:30:13;3.00;99.90
8593;DHT22;4334;49.982;8.398;2022-12-10T04:32:40;0.10;99.90
8593;DHT22;4334;49.982;8.398;2022-12-10T04:35:08;0.10;99.90
8593;DHT22;4334;49.982;8.398;2022-12-10T04:37:36;0.10;99.90
8593;DHT22;4334;49.982;8.398;2022-12-10T04:40:04;0.10;99.90
8593;DHT22;4334;49.982;8.398;2022-12-10T04:42:31;0.00;99.90
8593;DHT22;4334;49.982;8.398;2022-12-10T04:44:58;0.00;99.90
8593;DHT22;4334;49.982;8.398;2022-12-10T04:47:25;0.00;99.90
8593;DHT22;4334;49.982;8.398;2022-12-10T04:49:52;-0.30;99.90
8593;DHT22;4334;49.982;8.398;2022-12-10T04:52:19;0.00;99.90
8593;DHT22;4334;49.982;8.398;2022-12-10T04:54:47;0.00;99.90
8593;DHT22;4334;49.982;8.398;2022-12-10T04:57:14;0.00;99.90
8593;DHT22;4334;49.982;8.398;2022-12-10T04:59:41;0.00;99.90
8593;DHT22;4334;49.982;8.398;2022-12-10T05:02:08;0.20;99.90
8593;DHT22;4334;49.982;8.398;2022-12-10T05:04:35;0.00;99.90
8593;DHT22;4334;49.982;8.398;2022-12-10T05:07:02;-0.10;99.90
8593;DHT22;4334;49.982;8.398;2022-12-10T05:09:29;-0.10;99.90
8593;DHT22;4334;49.982;8.398;2022-12-10T05:11:57;-0.10;99.90
8593;DHT22;4334;49.982;8.398;2022-12-10T05:14:24;-0.10;99.90
8593;DHT22;4334;49.982;8.398;2022-12-10T05:16:54;0.00;99.90
8593;DHT22;4334;49.982;8.398;2022-12-10T05:19:21;1.70;99.90
8593;DHT22;4334;49.982;8.398;2022-12-10T05:21:49;-0.10;99.90
8593;DHT22;4334;49.982;8.398;2022-12-10T05:24:34;-0.10;99.90
8593;DHT22;4334;49.982;8.398;2022-12-10T05:27:03;-0.20;99.90
8593;DHT22;4334;49.982;8.398;2022-12-10T05:29:31;-0.20;99.90
8593;DHT22;4334;49.982;8.398;2022-12-10T05:31:58;-0.20;99.90
8593;DHT22;4334;49.982;8.398;2022-12-10T05:34:25;-0.30;99.90
8593;DHT22;4334;49.982;8.398;2022-12-10T05:36:52;-0.30;99.90
8593;DHT22;4334;49.982;8.398;2022-12-10T05:39:19;-0.20;99.90
8593;DHT22;4334;49.982;8.398;2022-12-10T05:41:46;-0.20;99.90
8593;DHT22;4334;49.982;8.398;2022-12-10T05:44:14;0.00;99.90
8593;DHT22;4334;49.982;8.398;2022-12-10T05:46:41;-0.30;99.90
8593;DHT22;4334;49.982;8.398;2022-12-10T05:49:08;-0.40;99.90
8593;DHT22;4334;49.982;8.398;2022-12-10T05:51:36;-0.50;99.90
8593;DHT22;4334;49.982;8.398;2022-12-10T05:54:05;-0.50;99.90
8593;DHT22;4334;49.982;8.398;2022-12-10T05:56:32;-0.50;99.90
8593;DHT22;4334;49.982;8.398;2022-12-10T05:59:00;-0.90;99.90
8593;DHT22;4334;49.982;8.398;2022-12-10T06:01:31;-0.60;99.90
8593;DHT22;4334;49.982;8.398;2022-12-10T06:03:59;-1.00;99.90
8593;DHT22;4334;49.982;8.398;2022-12-10T06:06:28;-0.70;99.90
8593;DHT22;4334;49.982;8.398;2022-12-10T06:08:56;-1.50;99.90
8593;DHT22;4334;49.982;8.398;2022-12-10T06:11:24;-0.50;99.90
8593;DHT22;4334;49.982;8.398;2022-12-10T06:13:52;2.20;99.90
8593;DHT22;4334;49.982;8.398;2022-12-10T06:16:20;-0.80;99.90
8593;DHT22;4334;49.982;8.398;2022-12-10T06:18:48;-0.90;99.90
8593;DHT22;4334;49.982;8.398;2022-12-10T06:21:17;-1.00;99.90
8593;DHT22;4334;49.982;8.398;2022-12-10T06:23:44;-1.00;99.90
8593;DHT22;4334;49.982;8.398;2022-12-10T06:26:13;-1.00;99.90
8593;DHT22;4334;49.982;8.398;2022-12-10T06:28:41;-1.40;99.90
8593;DHT22;4334;49.982;8.398;2022-12-10T06:31:09;-3.60;99.90
8593;DHT22;4334;49.982;8.398;2022-12-10T06:33:37;0.50;99.90
8593;DHT22;4334;49.982;8.398;2022-12-10T06:36:07;-0.90;99.90
8593;DHT22;4334;49.982;8.398;2022-12-10T06:38:35;-1.00;99.90
8593;DHT22;4334;49.982;8.398;2022-12-10T06:41:04;-1.00;99.90
8593;DHT22;4334;49.982;8.398;2022-12-10T06:43:32;-1.40;99.90
8593;DHT22;4334;49.982;8.398;2022-12-10T06:46:04;-1.10;99.90
8593;DHT22;4334;49.982;8.398;2022-12-10T06:48:30;-1.10;99.90
8593;DHT22;4334;49.982;8.398;2022-12-10T06:50:57;-1.10;99.90
8593;DHT22;4334;49.982;8.398;2022-12-10T06:53:26;2.70;99.90
8593;DHT22;4334;49.982;8.398;2022-12-10T06:55:52;-0.90;99.90
8593;DHT22;4334;49.982;8.398;2022-12-10T06:58:19;-1.10;99.90
8593;DHT22;4334;49.982;8.398;2022-12-10T07:00:46;1.10;99.90
8593;DHT22;4334;49.982;8.398;2022-12-10T07:03:13;-4.20;99.90
8593;DHT22;4334;49.982;8.398;2022-12-10T07:05:40;-0.90;99.90
8593;DHT22;4334;49.982;8.398;2022-12-10T07:08:07;2.30;99.90
8593;DHT22;4334;49.982;8.398;2022-12-10T07:10:36;-0.80;99.90
8593;DHT22;4334;49.982;8.398;2022-12-10T07:13:04;-0.80;99.90
8593;DHT22;4334;49.982;8.398;2022-12-10T07:15:31;-0.70;99.90
8593;DHT22;4334;49.982;8.398;2022-12-10T07:17:58;-0.70;99.90
8593;DHT22;4334;49.982;8.398;2022-12-10T07:20:25;-0.60;99.90
8593;DHT22;4334;49.982;8.398;2022-12-10T07:22:52;-0.60;99.90
8593;DHT22;4334;49.982;8.398;2022-12-10T07:25:19;-1.10;99.90
8593;DHT22;4334;49.982;8.398;2022-12-10T07:27:47;2.20;99.90
8593;DHT22;4334;49.982;8.398;2022-12-10T07:30:14;-0.30;99.90
8593;DHT22;4334;49.982;8.398;2022-12-10T07:32:41;-0.30;99.90
8593;DHT22;4334;49.982;8.398;2022-12-10T07:35:08;-0.20;99.90
8593;DHT22;4334;49.982;8.398;2022-12-10T07:37:35;1.70;99.90
8593;DHT22;4334;49.982;8.398;2022-12-10T07:40:03;0.00;99.90
8593;DHT22;4334;49.982;8.398;2022-12-10T07:42:30;0.10;99.90
8593;DHT22;4334;49.982;8.398;2022-12-10T07:44:58;0.10;99.90
8593;DHT22;4334;49.982;8.398;2022-12-10T07:47:25;0.20;99.90
8593;DHT22;4334;49.982;8.398;2022-12-10T07:49:56;0.20;99.90
8593;DHT22;4334;49.982;8.398;2022-12-10T07:52:23;0.10;99.90
8593;DHT22;4334;49.982;8.398;2022-12-10T07:54:49;0.20;99.90
8593;DHT22;4334;49.982;8.398;2022-12-10T07:57:16;1.50;99.90
8593;DHT22;4334;49.982;8.398;2022-12-10T07:59:43;0.30;99.90
8593;DHT22;4334;49.982;8.398;2022-12-10T08:02:12;0.30;99.90
8593;DHT22;4334;49.982;8.398;2022-12-10T08:04:39;-0.50;99.90
8593;DHT22;4334;49.982;8.398;2022-12-10T08:07:09;0.50;99.90
8593;DHT22;4334;49.982;8.398;2022-12-10T08:09:36;0.50;99.90
8593;DHT22;4334;49.982;8.398;2022-12-10T08:12:03;0.50;99.90
8593;DHT22;4334;49.982;8.398;2022-12-10T08:14:31;0.70;99.90
8593;DHT22;4334;49.982;8.398;2022-12-10T08:16:57;0.80;99.90
8593;DHT22;4334;49.982;8.398;2022-12-10T08:19:28;0.70;99.90
8593;DHT22;4334;49.982;8.398;2022-12-10T08:21:55;0.70;99.90
8593;DHT22;4334;49.982;8.398;2022-12-10T08:24:22;0.80;99.90
8593;DHT22;4334;49.982;8.398;2022-12-10T08:26:48;0.80;99.90
8593;DHT22;4334;49.982;8.398;2022-12-10T08:29:18;0.80;99.90
8593;DHT22;4334;49.982;8.398;2022-12-10T08:31:45;0.70;99.90
8593;DHT22;4334;49.982;8.398;2022-12-10T08:34:12;0.70;99.90
8593;DHT22;4334;49.982;8.398;2022-12-10T08:36:41;0.70;99.90
8593;DHT22;4334;49.982;8.398;2022-12-10T08:39:08;0.80;99.90
8593;DHT22;4334;49.982;8.398;2022-12-10T08:41:41;2.40;99.90
8593;DHT22;4334;49.982;8.398;2022-12-10T08:44:08;0.90;99.90
8593;DHT22;4334;49.982;8.398;2022-12-10T08:46:35;1.00;99.90
8593;DHT22;4334;49.982;8.398;2022-12-10T08:49:03;1.10;99.90
8593;DHT22;4334;49.982;8.398;2022-12-10T08:51:30;1.10;99.90
8593;DHT22;4334;49.982;8.398;2022-12-10T08:53:58;1.20;99.90
8593;DHT22;4334;49.982;8.398;2022-12-10T08:56:25;1.10;99.90
8593;DHT22;4334;49.982;8.398;2022-12-10T08:58:52;1.20;99.90
8593;DHT22;4334;49.982;8.398;2022-12-10T09:01:19;2.40;99.90
8593;DHT22;4334;49.982;8.398;2022-12-10T09:03:46;1.30;99.90
8593;DHT22;4334;49.982;8.398;2022-12-10T09:06:14;1.40;99.90
8593;DHT22;4334;49.982;8.398;2022-12-10T09:08:42;3.70;99.90
8593;DHT22;4334;49.982;8.398;2022-12-10T09:11:13;1.60;99.90
8593;DHT22;4334;49.982;8.398;2022-12-10T09:13:41;1.70;99.90
8593;DHT22;4334;49.982;8.398;2022-12-10T09:16:09;3.10;99.90
8593;DHT22;4334;49.982;8.398;2022-12-10T09:18:36;3.40;99.90
8593;DHT22;4334;49.982;8.398;2022-12-10T09:21:05;1.90;99.90
8593;DHT22;4334;49.982;8.398;2022-12-10T09:23:31;2.00;99.90
8593;DHT22;4334;49.982;8.398;2022-12-10T09:25:59;2.10;99.90
8593;DHT22;4334;49.982;8.398;2022-12-10T09:28:27;2.10;99.90
8593;DHT22;4334;49.982;8.398;2022-12-10T09:30:57;2.10;99.90
8593;DHT22;4334;49.982;8.398;2022-12-10T09:33:25;3.70;99.90
8593;DHT22;4334;49.982;8.398;2022-12-10T09:35:52;2.20;99.90
8593;DHT22;4334;49.982;8.398;2022-12-10T09:38:20;2.10;99.90
8593;DHT22;4334;49.982;8.398;2022-12-10T09:40:51;2.10;99.90
8593;DHT22;4334;49.982;8.398;2022-12-10T09:43:26;2.10;99.90
8593;DHT22;4334;49.982;8.398;2022-12-10T09:46:06;2.10;99.90
8593;DHT22;4334;49.982;8.398;2022-12-10T09:48:45;2.20;99.90
8593;DHT22;4334;49.982;8.398;2022-12-10T09:51:18;2.30;99.90
8593;DHT22;4334;49.982;8.398;2022-12-10T09:53:47;2.20;99.90
8593;DHT22;4334;49.982;8.398;2022-12-10T09:56:21;1.00;99.90
8593;DHT22;4334;49.982;8.398;2022-12-10T09:58:53;2.20;99.90
8593;DHT22;4334;49.982;8.398;2022-12-10T10:01:28;2.20;99.90
8593;DHT22;4334;49.982;8.398;2022-12-10T10:03:59;2.30;99.90
8593;DHT22;4334;49.982;8.398;2022-12-10T10:06:27;2.60;99.90
8593;DHT22;4334;49.982;8.398;2022-12-10T10:08:57;2.80;99.90
8593;DHT22;4334;49.982;8.398;2022-12-10T10:11:29;2.70;99.90
8593;DHT22;4334;49.982;8.398;2022-12-10T10:13:58;2.90;99.90
8593;DHT22;4334;49.982;8.398;2022-12-10T10:16:32;3.90;99.90
8593;DHT22;4334;49.982;8.398;2022-12-10T10:19:01;4.50;99.90
8593;DHT22;4334;49.982;8.398;2022-12-10T10:21:32;4.10;99.90
8593;DHT22;4334;49.982;8.398;2022-12-10T10:24:00;3.50;99.90
8593;DHT22;4334;49.982;8.398;2022-12-10T10:26:28;3.10;99.90
8593;DHT22;4334;49.982;8.398;2022-12-10T10:28:58;3.00;99.90
8593;DHT22;4334;49.982;8.398;2022-12-10T10:31:29;2.70;99.90
8593;DHT22;4334;49.982;8.398;2022-12-10T10:33:58;2.60;99.90
8593;DHT22;4334;49.982;8.398;2022-12-10T10:36:27;2.50;99.90
8593;DHT22;4334;49.982;8.398;2022-12-10T10:38:55;2.50;99.90
8593;DHT22;4334;49.982;8.398;2022-12-10T10:41:23;2.50;99.90
8593;DHT22;4334;49.982;8.398;2022-12-10T10:43:59;2.50;99.90
8593;DHT22;4334;49.982;8.398;2022-12-10T10:46:28;2.50;99.90
8593;DHT22;4334;49.982;8.398;2022-12-10T10:49:14;2.40;99.90
8593;DHT22;4334;49.982;8.398;2022-12-10T10:51:43;2.30;99.90
8593;DHT22;4334;49.982;8.398;2022-12-10T10:54:11;2.40;99.90
8593;DHT22;4334;49.982;8.398;2022-12-10T10:56:41;2.40;99.90
8593;DHT22;4334;49.982;8.398;2022-12-10T10:59:28;2.50;99.90
8593;DHT22;4334;49.982;8.398;2022-12-10T11:02:01;2.40;99.90
8593;DHT22;4334;49.982;8.398;2022-12-10T11:04:31;2.30;99.90
8593;DHT22;4334;49.982;8.398;2022-12-10T11:07:04;2.30;99.90
8593;DHT22;4334;49.982;8.398;2022-12-10T11:09:33;2.30;99.90
8593;DHT22;4334;49.982;8.398;2022-12-10T11:12:03;2.40;99.90
8593;DHT22;4334;49.982;8.398;2022-12-10T11:14:32;2.60;99.90
8593;DHT22;4334;49.982;8.398;2022-12-10T11:17:17;2.90;99.90
8593;DHT22;4334;49.982;8.398;2022-12-10T11:19:54;3.30;99.90
8593;DHT22;4334;49.982;8.398;2022-12-10T11:22:23;4.30;99.90
8593;DHT22;4334;49.982;8.398;2022-12-10T11:24:50;4.90;99.90
8593;DHT22;4334;49.982;8.398;2022-12-10T11:27:25;5.10;99.90
8593;DHT22;4334;49.982;8.398;2022-12-10T11:30:00;4.60;99.90
8593;DHT22;4334;49.982;8.398;2022-12-10T11:32:41;4.40;99.90
8593;DHT22;4334;49.982;8.398;2022-12-10T11:35:16;4.20;99.90
8593;DHT22;4334;49.982;8.398;2022-12-10T11:37:56;4.70;99.90
8593;DHT22;4334;49.982;8.398;2022-12-10T11:40:33;5.70;99.90
8593;DHT22;4334;49.982;8.398;2022-12-10T11:43:15;6.30;99.90
8593;DHT22;4334;49.982;8.398;2022-12-10T11:45:52;6.40;99.90
8593;DHT22;4334;49.982;8.398;2022-12-10T11:48:34;6.50;99.90
8593;DHT22;4334;49.982;8.398;2022-12-10T11:51:10;4.50;99.90
8593;DHT22;4334;49.982;8.398;2022-12-10T11:53:55;4.10;99.90
8593;DHT22;4334;49.982;8.398;2022-12-10T11:56:28;3.80;99.90
8593;DHT22;4334;49.982;8.398;2022-12-10T11:59:10;3.50;99.90
8593;DHT22;4334;49.982;8.398;2022-12-10T12:02:07;3.30;99.90
8593;DHT22;4334;49.982;8.398;2022-12-10T12:04:53;3.40;99.90
8593;DHT22;4334;49.982;8.398;2022-12-10T12:07:33;3.60;99.90
8593;DHT22;4334;49.982;8.398;2022-12-10T12:13:15;3.70;99.90
8593;DHT22;4334;49.982;8.398;2022-12-10T12:15:49;3.80;99.90
8593;DHT22;4334;49.982;8.398;2022-12-10T12:18:21;4.00;99.90
8593;DHT22;4334;49.982;8.398;2022-12-10T12:20:53;4.20;99.90
8593;DHT22;4334;49.982;8.398;2022-12-10T12:23:26;5.60;99.90
8593;DHT22;4334;49.982;8.398;2022-12-10T12:25:58;4.60;99.90
8593;DHT22;4334;49.982;8.398;2022-12-10T12:28:31;5.90;99.90
8593;DHT22;4334;49.982;8.398;2022-12-10T12:31:05;4.10;99.90
8593;DHT22;4334;49.982;8.398;2022-12-10T12:33:40;3.70;99.90
8593;DHT22;4334;49.982;8.398;2022-12-10T12:36:13;3.60;99.90
8593;DHT22;4334;49.982;8.398;2022-12-10T12:38:45;3.70;99.90
8593;DHT22;4334;49.982;8.398;2022-12-10T12:41:16;3.40;99.90
8593;DHT22;4334;49.982;8.398;2022-12-10T12:43:49;5.00;99.90
8593;DHT22;4334;49.982;8.398;2022-12-10T12:46:24;3.10;99.90
8593;DHT22;4334;49.982;8.398;2022-12-10T12:48:57;4.10;99.90
8593;DHT22;4334;49.982;8.398;2022-12-10T12:51:34;2.90;99.90
8593;DHT22;4334;49.982;8.398;2022-12-10T12:54:04;3.70;99.90
8593;DHT22;4334;49.982;8.398;2022-12-10T12:56:47;2.80;99.90
8593;DHT22;4334;49.982;8.398;2022-12-10T12:59:26;2.90;99.90
8593;DHT22;4334;49.982;8.398;2022-12-10T13:02:00;3.00;99.90
8593;DHT22;4334;49.982;8.398;2022-12-10T13:04:33;3.10;99.90
8593;DHT22;4334;49.982;8.398;2022-12-10T13:07:27;3.10;99.90
8593;DHT22;4334;49.982;8.398;2022-12-10T13:10:16;3.20;99.90
8593;DHT22;4334;49.982;8.398;2022-12-10T13:12:48;3.30;99.90
8593;DHT22;4334;49.982;8.398;2022-12-10T13:15:19;3.10;99.90
8593;DHT22;4334;49.982;8.398;2022-12-10T13:18:17;3.00;99.90
8593;DHT22;4334;49.982;8.398;2022-12-10T13:20:47;3.10;99.90
8593;DHT22;4334;49.982;8.398;2022-12-10T13:23:32;3.10;99.90
8593;DHT22;4334;49.982;8.398;2022-12-10T13:26:00;3.00;99.90
8593;DHT22;4334;49.982;8.398;2022-12-10T13:28:31;4.60;99.90
8593;DHT22;4334;49.982;8.398;2022-12-10T13:31:19;3.30;99.90
8593;DHT22;4334;49.982;8.398;2022-12-10T13:33:49;3.50;99.90
8593;DHT22;4334;49.982;8.398;2022-12-10T13:36:21;3.60;99.90
8593;DHT22;4334;49.982;8.398;2022-12-10T13:39:12;3.60;99.90
8593;DHT22;4334;49.982;8.398;2022-12-10T13:41:41;3.50;99.90
8593;DHT22;4334;49.982;8.398;2022-12-10T13:44:37;3.30;99.90
8593;DHT22;4334;49.982;8.398;2022-12-10T13:47:25;3.00;99.90
8593;DHT22;4334;49.982;8.398;2022-12-10T13:49:54;2.90;99.90
8593;DHT22;4334;49.982;8.398;2022-12-10T13:52:25;2.90;99.90
8593;DHT22;4334;49.982;8.398;2022-12-10T13:55:22;3.00;99.90
8593;DHT22;4334;49.982;8.398;2022-12-10T13:58:08;2.70;99.90
8593;DHT22;4334;49.982;8.398;2022-12-10T14:00:43;2.60;99.90
8593;DHT22;4334;49.982;8.398;2022-12-10T14:03:35;2.70;99.90
8593;DHT22;4334;49.982;8.398;2022-12-10T14:06:13;2.60;99.90
8593;DHT22;4334;49.982;8.398;2022-12-10T14:08:53;2.60;99.90
8593;DHT22;4334;49.982;8.398;2022-12-10T14:11:23;2.50;99.90
8593;DHT22;4334;49.982;8.398;2022-12-10T14:13:54;2.30;99.90
8593;DHT22;4334;49.982;8.398;2022-12-10T14:16:23;2.10;99.90
8593;DHT22;4334;49.982;8.398;2022-12-10T14:18:55;2.20;99.90
8593;DHT22;4334;49.982;8.398;2022-12-10T14:21:23;2.10;99.90
8593;DHT22;4334;49.982;8.398;2022-12-10T14:23:52;2.10;99.90
8593;DHT22;4334;49.982;8.398;2022-12-10T14:26:25;2.00;99.90
8593;DHT22;4334;49.982;8.398;2022-12-10T14:28:55;2.00;99.90
8593;DHT22;4334;49.982;8.398;2022-12-10T14:31:27;1.90;99.90
8593;DHT22;4334;49.982;8.398;2022-12-10T14:33:58;1.80;99.90
8593;DHT22;4334;49.982;8.398;2022-12-10T14:36:28;1.70;99.90
8593;DHT22;4334;49.982;8.398;2022-12-10T14:38:56;1.70;99.90
8593;DHT22;4334;49.982;8.398;2022-12-10T14:41:26;0.90;99.90
8593;DHT22;4334;49.982;8.398;2022-12-10T14:43:54;1.60;99.90
8593;DHT22;4334;49.982;8.398;2022-12-10T14:46:24;1.60;99.90
8593;DHT22;4334;49.982;8.398;2022-12-10T14:48:52;1.60;99.90
8593;DHT22;4334;49.982;8.398;2022-12-10T14:51:21;1.60;99.90
8593;DHT22;4334;49.982;8.398;2022-12-10T14:53:50;1.60;99.90
8593;DHT22;4334;49.982;8.398;2022-12-10T14:56:22;2.90;99.90
8593;DHT22;4334;49.982;8.398;2022-12-10T14:58:55;1.60;99.90
8593;DHT22;4334;49.982;8.398;2022-12-10T15:01:28;1.60;99.90
8593;DHT22;4334;49.982;8.398;2022-12-10T15:03:58;1.60;99.90
8593;DHT22;4334;49.982;8.398;2022-12-10T15:06:25;4.00;99.90
8593;DHT22;4334;49.982;8.398;2022-12-10T15:08:55;1.60;99.90
8593;DHT22;4334;49.982;8.398;2022-12-10T15:11:24;1.60;99.90
8593;DHT22;4334;49.982;8.398;2022-12-10T15:13:55;1.50;99.90
8593;DHT22;4334;49.982;8.398;2022-12-10T15:16:29;1.50;99.90
8593;DHT22;4334;49.982;8.398;2022-12-10T15:19:06;1.50;99.90
8593;DHT22;4334;49.982;8.398;2022-12-10T15:21:41;1.30;99.90
8593;DHT22;4334;49.982;8.398;2022-12-10T15:24:14;1.20;99.90
8593;DHT22;4334;49.982;8.398;2022-12-10T15:26:43;1.20;99.90
8593;DHT22;4334;49.982;8.398;2022-12-10T15:29:36;1.10;99.90
8593;DHT22;4334;49.982;8.398;2022-12-10T15:32:11;1.10;99.90
8593;DHT22;4334;49.982;8.398;2022-12-10T15:34:42;1.00;99.90
8593;DHT22;4334;49.982;8.398;2022-12-10T15:37:22;1.00;99.90
8593;DHT22;4334;49.982;8.398;2022-12-10T15:39:52;1.00;99.90
8593;DHT22;4334;49.982;8.398;2022-12-10T15:42:36;1.00;99.90
8593;DHT22;4334;49.982;8.398;2022-12-10T15:45:18;1.00;99.90
8593;DHT22;4334;49.982;8.398;2022-12-10T15:47:45;1.00;99.90
8593;DHT22;4334;49.982;8.398;2022-12-10T15:50:12;0.90;99.90
8593;DHT22;4334;49.982;8.398;2022-12-10T15:52:39;0.90;99.90
8593;DHT22;4334;49.982;8.398;2022-12-10T15:55:08;2.90;99.90
8593;DHT22;4334;49.982;8.398;2022-12-10T15:57:37;0.80;99.90
8593;DHT22;4334;49.982;8.398;2022-12-10T16:00:17;0.70;99.90
8593;DHT22;4334;49.982;8.398;2022-12-10T16:02:47;0.70;99.90
8593;DHT22;4334;49.982;8.398;2022-12-10T16:05:15;0.50;99.90
8593;DHT22;4334;49.982;8.398;2022-12-10T16:07:44;0.60;99.90
8593;DHT22;4334;49.982;8.398;2022-12-10T16:10:13;0.50;99.90
8593;DHT22;4334;49.982;8.398;2022-12-10T16:12:41;0.50;99.90
8593;DHT22;4334;49.982;8.398;2022-12-10T16:15:17;0.50;99.90
8593;DHT22;4334;49.982;8.398;2022-12-10T16:17:45;2.30;99.90
8593;DHT22;4334;49.982;8.398;2022-12-10T16:20:22;0.30;99.90
8593;DHT22;4334;49.982;8.398;2022-12-10T16:22:49;0.30;99.90
8593;DHT22;4334;49.982;8.398;2022-12-10T16:25:16;0.70;99.90
8593;DHT22;4334;49.982;8.398;2022-12-10T16:27:43;0.20;99.90
8593;DHT22;4334;49.982;8.398;2022-12-10T16:30:15;0.10;99.90
8593;DHT22;4334;49.982;8.398;2022-12-10T16:32:43;0.10;99.90
8593;DHT22;4334;49.982;8.398;2022-12-10T16:35:10;0.70;99.90
8593;DHT22;4334;49.982;8.398;2022-12-10T16:37:40;0.10;99.90
8593;DHT22;4334;49.982;8.398;2022-12-10T16:40:08;0.10;99.90